Wilmington, NC

11:57 PM EDT on October 01, 2014 (GMT -0400)
Myric Ct | Change Station
CLOSE
Current Station
Personal Weather Station
Location: Wilmington, NC
Elevation: 30 ft
Nearby Weather Stations

Elev 30 ft 34.27 °N, 77.84 °W | Updated 55 seconds ago

Clear
Clear
64.4 °F
Feels Like 64.4 °F
N
0.0
Wind Variable Wind from WSW
Gusts 0.0 mph

Today
High -- | Low -- °F
--% Chance of Precip.
Yesterday
High -- | Low -- °F
Precip. -- in
7:05 AM 6:55 PM
First Quarter, 54% visible
Pressure 30.03 in
Visibility 10.0 miles
Clouds Clear
Dew Point 64 °F
Humidity 97%
Rainfall 0.01 in
Snow Depth Not available.
UV 0 out of 12
Pollen 5.10 out of 12
Air Quality Not available.
Flu Activity Not available.
METAR KILM 020253Z AUTO 00000KT 10SM CLR 19/18 A3003 RMK AO2 SLP169 T01940183 51013

More Conditions Fewer Conditions

Pressure 30.03 in
Visibility 10.0 miles
Clouds Clear
Dew Point 64 °F
Humidity 97%
Rainfall 0.01 in
Snow Depth Not available.
UV 0 out of 12
Pollen 5.10 out of 12
Air Quality Not available.
Flu Activity Not available.
METAR KILM 020253Z AUTO 00000KT 10SM CLR 19/18 A3003 RMK AO2 SLP169 T01940183 51013

More Conditions Fewer Conditions

10-Day Weather Forecast

Almanac

Astronomy

Oct. 01, 2014 Rise Set
Actual Time 7:05 AM EDT 6:55 PM EDT
Civil Twilight 6:40 AM EDT 7:20 PM EDT
Nautical Twilight 6:11 AM EDT 7:49 PM EDT
Astronomical Twilight 5:42 AM EDT 8:18 PM EDT
Moon 1:54 PM EDT (10/1) No Moon Set
Length of Visible Light 12h 39m
Length of Day
11h 49m
Tomorrow will be 2m 6s shorter.
First Quarter, 54% of the Moon is Illuminated
Today
First Quarter
Oct 8
Full
Oct 15
Last Quarter
Oct 23
New
Oct 30
First Quarter

Today's Extremes

State Highs State Lows

Community

WunderPhotos

Upload Photos

1,758,170 photos uploaded!

Nearby

Snow Depth

Station Depth Elevation
No new snow has been reported.

Earthquake Activity

City Distance Mag. Time & Date
No recent earthquake activity has been reported nearby.
Minimum magnitude displayed is 2.5.

Coastal Water Temperatures

Place Temperature
Johnny Mercer Pier, Wrightsville Beach, NC 79.0 °F
Beaufort, NC 75.9 °F
Springmaid Pier, SC 75.9 °F

Nearby Weather Stations